航空気象通報

ウインドサーファーのための航空気象通報による風予報です。

6/29-6/30の航空気象通報(国内、海外)

2013年06月29日 22時12分03秒 | TAF

羽田空港
TAF RJTT 290838Z 2909/3012 12010KT 9999 FEW015 SCT030
BECMG 2916/2918 18004KT
BECMG 3000/3003 18014KT
日本時間29日18時-30日01時:120度から10ノットの風
01-03時:風が変化
03-09時:180度から4ノットの風
09-12:風が変化
12-21時:180度から14ノットの風

静岡空港
TAF RJNS 290838Z 2909/3012 17006KT 9999 FEW020 SCT050
BECMG 2913/2915 34004KT
TEMPO 2915/2921 4000 BR
BECMG 3000/3003 16008KT
日本時間29日18-22時:170度から6ノットの風
22-24時:風が変化
30日00-09時:340度から4ノットの風
09-12時:風が変化
12-21時:160度から8ノットの風

但し、30日00-06時の間:ときどき、もや

福岡空港
TAF RJFF 290838Z 2909/3012 14005KT 9999 FEW020 SCT040
日本時間29日18時-30日21時:140度から5ノットの風

那覇空港
TAF ROAH 290836Z 2909/3012 20011KT 9999 FEW015
日本時間29日18時-30日21時:200度から11ノットの風

マウイのカフルイ空港
PHOG 291121Z 2912/3012 04008KT P6SM SCT050
FM291800 05018G28KT P6SM SCT050
FM300500 05015KT P6SM SCT050
FM300800 04012KT P6SM SCT050
FM301100 04008KT P6SM SCT050 AMD LTD TO WX VIS AND WIND TIL 291600
ハワイ時間29日02-08時:040度から8ノットの風
08-19時:050度から18ノット、突風28ノット
19-22時:050度から15ノットの風
22時-30日01時:040度から12ノットの風
01-02時:040度から8ノットの風

サイパン空港
PGSN 291120Z 2912/3012 09008KT P6SM VCSH SCT018 SCT040
マリアナ時間29日22時-30日22時:090度から8ノットの風

コメント
この記事をはてなブックマークに追加

6/23-6/24の航空気象通報(国内、海外)

2013年06月23日 21時35分00秒 | TAF

羽田空港
TAF RJTT 230840Z 2309/2412 18010KT 9999 FEW010 BKN030
BECMG 2315/2317 05006KT
TEMPO 2317/2321 4000 BR FEW005 BKN008
BECMG 2400/2403 08006KT
BECMG 2403/2406 16012KT
日本時間23日18-24時:180度から10ノットの風
24日00-02時:風が変化
02-09時:080度から6ノットの風
09-12:風が変化
12-21時:160度から12ノットの風

静岡空港
TAF RJNS 230838Z 2309/2412 24006KT 9999 FEW015 SCT030
TEMPO 2318/2321 3000 -RA BR FEW005 BKN008
BECMG 2321/2324 12004KT
日本時間23日18時-24日06時:240度から6ノットの風
06-09時:風が変化
09-21時:120度から4ノットの風

但し、24日03-06時の間:ときどき

福岡空港
TAF RJFF 230846Z 2309/2412 14003KT 9999 -RA FEW010 SCT030 BKN040
TEMPO 2315/2321 4000 -RA BR
BECMG 2400/2403 32010KT
日本時間23日18時-24日09時:140度から3ノットの風
09-12時:風が変化
12-21時:320度から10ノットの風

但し、24日00-06時の間:ときどき

那覇空港
TAF ROAH 230836Z 2309/2412 20012KT 9999 FEW015
日本時間23日18時-24日21時:200度から12ノットの風

マウイのカフルイ空港
PHOG 231138Z 2312/2412 05012G20KT P6SM VCSH SCT030 BKN050
TEMPO 2312/2315 05012KT
FM232000 05020G30KT P6SM FEW030 SCT050 WS006/06010KT
FM240500 05012G20KT P6SM SCT030 SCT050
TEMPO 2408/2412 05012KT AMD LTD TO WX VIS AND WIND TIL 231600
ハワイ時間23日02-10時:050度から12ノット、突風20ノット
但し、02-05時の間:ときどき050度から12ノットの風

10-19時:050度から20ノット、突風30ノット
19時-24日02時:050度から12ノット、突風20ノット

サイパン空港
PGSN 231120Z 2312/2412 09009KT P6SM VCSH FEW025 SCT050
マリアナ時間23日22時-24日22時:090度から9ノットの風

コメント
この記事をはてなブックマークに追加

6/22-6/23の航空気象通報(国内、海外)

2013年06月22日 21時20分04秒 | TAF


羽田空港
TAF RJTT 220842Z 2209/2312 18014KT 9999 FEW015 SCT030
BECMG 2213/2215 02008KT
BECMG 2300/2303 09010KT
BECMG 2303/2306 18014KT
日本時間22日18-22時:180度から14ノットの風
22-24時:風が変化
23日00-09時:020度から8ノットの風
09-12:風が変化
12時:090度から10ノットの風
12-15時:風が変化
15-21時:180度から14ノットの風

静岡空港
TAF RJNS 220845Z 2209/2312 26004KT 9999 FEW020
BECMG 2221/2224 15010KT
BECMG 2306/2309 24008KT
日本時間22日18時-23日06時:260度から4ノットの風
06-09時:風が変化
09-15時:150度から10ノットの風
15-18時:風が変化
18-21時:240度から8ノットの風

福岡空港
TAF RJFF 220846Z 2209/2312 33005KT 9999 FEW020
BECMG 2213/2215 15003KT
BECMG 2300/2303 33007KT
日本時間22日18-22時:330度から5ノットの風
22-24時:風が変化
23日00-09時:150度から3ノットの風
09-12時:風が変化
12-21時:330度から3ノットの風

那覇空港
TAF ROAH 220837Z 2209/2312 20011KT 9999 FEW015
日本時間22日18時-23日21時:200度から11ノットの風

マウイのカフルイ空港
PHOG 221135Z 2212/2312 06012G18KT P6SM SCT035 BKN060
TEMPO 2212/2215 06012KT
FM221800 06012G22KT P6SM FEW030 SCT060
FM222200 06018G28KT P6SM FEW030 SCT060
FM230600 06012G18KT P6SM FEW030 SCT060 AMD LTD TO WX VIS AND WIND TIL 221600
ハワイ時間22日02-08時:060度から12ノット、突風18ノット
但し、02-05時の間:ときどき060度から12ノットの風
08-12時:060度から12ノット、突風22ノット
12-20時:060度から18ノット、突風28ノット
20時-23日02時:060度から12ノット、突風18ノット

サイパン空港
PGSN 221120Z 2212/2312 08011KT P6SM VCSH SCT023
マリアナ時間22日22時-23日22時:080度から11ノットの風

コメント
この記事をはてなブックマークに追加

6/21-6/22の航空気象通報(国内、海外)

2013年06月22日 00時13分13秒 | TAF

羽田空港
TAF RJTT 210853Z 2109/2212 18008KT 8000 -SHRA FEW008 SCT015 BKN040
TEMPO 2109/2112 4000 -SHRA BR
BECMG 2118/2121 34006KT
BECMG 2200/2203 12008KT
BECMG 2206/2209 19014KT
日本時間21日18時-22日03時:180度から8ノットの風
03-06時:風が変化
06-09時:340度から6ノットの風
09-12:風が変化
12-15時:120度から8ノットの風
15-18時:風が変化
18-21時:190度から14ノットの風

静岡空港
TAF RJNS 210852Z 2109/2212 10004KT 2000 -SHRA BR FEW005 BKN008
TEMPO 2109/2115 0700 SHRA FG FEW002 BKN003
TEMPO 2115/2121 1500 -SHRA BR FEW003 BKN005
BECMG 2121/2124 8000 NSW FEW010 BKN020
日本時間21日18時-22日21時:100度から4ノットの風
、22日06-09時の後、

福岡空港
TAF RJFF 210841Z 2109/2212 12013KT 9000 FEW010 SCT015
TEMPO 2109/2110 12015G25KT
BECMG 2112/2114 04003KT
日本時間21日18-21時:120度から13ノットの風
21-23時:風が変化
23時-22日21時:040度から3ノットの風

那覇空港
TAF ROAH 210837Z 2109/2212 20010KT 9999 SCT015 BKN030
日本時間21日18時-22日21時:200度から10ノットの風

マウイのカフルイ空港
PHOG 211138Z 2112/2212 05012KT P6SM SCT035 BKN060
TEMPO 2116/2120 05010G20KT
FM212000 06018G25KT P6SM SCT030 SCT060
FM220600 06012KT P6SM SCT030 SCT060
TEMPO 2208/2212 06012G28KT AMD LTD TO WX VIS AND WIND TIL 211600
ハワイ時間21日02-10時:050度から12ノットの風
但し、06-10時の間:050度から10ノット、突風20ノット
10-20時:060度から18ノット、突風25ノット
20時-22日02時:060度から12ノットの風

サイパン空港
PGSN 211120Z 2112/2212 08010KT P6SM VCSH SCT021 SCT070
マリアナ時間21日22時-22日22時:080度から10ノットの風

コメント
この記事をはてなブックマークに追加

6/16-6/17の航空気象通報(国内、海外)

2013年06月16日 23時31分24秒 | TAF

羽田空港
TAF RJTT 160840Z 1609/1712 08010KT 9999 FEW012 SCT020
BECMG 1611/1613 03010KT
TEMPO 1615/1624 FEW005 BKN008
BECMG 1700/1703 12008KT
BECMG 1706/1709 18015KT
日本時間16日18-20時:080度から10ノットの風
20-22時:風が変化
22時-17日09時:030度から10ノットの風
09-12:風が変化
12-15時:120度から8ノットの風
15-18時:風が変化
18-21時:180度から15ノットの風

静岡空港
TAF RJNS 160847Z 1609/1712 19006KT 9999 FEW030 SCT060
BECMG 1610/1612 26006KT
TEMPO 1618/1621 4000 BR
BECMG 1700/1703 18008KT
BECMG 1706/1709 24008KT
日本時間16日18-19時:190度から6ノットの風
19-21時:風が変化
21時-17日09時:260度から6ノットの風
09-12時:風が変化
09-15時:180度から8ノットの風
15-18時:風が変化
18-21時:240度から8ノットの風

但し、17日03-06時の間:ときどき、もや

福岡空港
TAF RJFF 160838Z 1609/1712 33006KT 9999 FEW020
BECMG 1613/1615 14003KT
BECMG 1700/1703 31010KT
日本時間16日18-22時:330度から6ノットの風
22-24時:風が変化
17日00-09時:140度から3ノットの風
09-12時:風が変化
12-21時:310度から10ノットの風

那覇空港
TAF ROAH 160842Z 1609/1712 22006KT 9999 SCT020 BKN035
TEMPO 1609/1611 SCT015 FEW025CB BKN030
TEMPO 1617/1621 4000 SHRA SCT015 FEW025CB BKN030
BECMG 1700/1703 30009KT
BECMG 1706/1709 26006KT
日本時間16日18時-17日09時:220度から6ノットの風
09-12時:風が変化
12-15時:300度から9ノットの風
15-18時:風が変化
18-21時:260度から6ノットの風

マウイのカフルイ空港
PHOG 161120Z 1612/1712 06010KT P6SM SCT040
FM161400 06008KT P6SM SCT040
FM161900 05018G28KT P6SM SCT040
FM170600 06012G22KT P6SM SCT040 AMD LTD TO WX VIS AND WIND TIL 161600
ハワイ時間16日02-04時:060度から10ノットの風
04-09時:060度から8ノットの風
09-20時:050度から18ノット、突風28ノット
20時-17日02時:060度から12ノット、突風22ノット

サイパン空港
PGSN 161131Z 1612/1712 08010KT P6SM VCSH SCT020 SCT040
マリアナ時間16日22時-17日22時:080度から10ノットの風

コメント
この記事をはてなブックマークに追加